Time;durP1;ratioP1;P1;durP2;ratioP2;P2;SDS_P1;SDS_P2;PMS_P1;PMS_P2;Temp;Humidity;BMP_temperature;BMP_pressure;BME280_temperature;BME280_humidity;BME280_pressure;Samples;Min_cycle;Max_cycle;Signal;HPM_P1;HPM_P2
2021/01/16 00:03:51;;;;;;;5.37;1.53;;;;;;;;;;10199573;28;20038;-65
2021/01/16 00:08:48;;;;;;;3.43;2.53;;;;;;;;;;10214944;28;20029;-63
2021/01/16 00:13:46;;;;;;;1.93;1.10;;;;;;;;;;10216581;28;20447;-64
2021/01/16 00:18:44;;;;;;;2.33;1.43;;;;;;;;;;10201559;28;20396;-64
2021/01/16 00:23:41;;;;;;;3.00;1.85;;;;;;;;;;10197731;28;20058;-64
2021/01/16 00:28:38;;;;;;;2.20;1.90;;;;;;;;;;10230915;28;21061;-64
2021/01/16 00:33:36;;;;;;;1.40;1.30;;;;;;;;;;10207117;28;20129;-64
2021/01/16 00:38:37;;;;;;;3.77;1.47;;;;;;;;;;10216933;28;20041;-64
2021/01/16 00:43:35;;;;;;;6.07;1.58;;;;;;;;;;10228191;28;20041;-64
2021/01/16 00:48:32;;;;;;;9.90;1.90;;;;;;;;;;10220637;28;20045;-64
2021/01/16 00:53:31;;;;;;;2.75;1.85;;;;;;;;;;10199227;28;20039;-63
2021/01/16 00:58:33;;;;;;;2.67;2.20;;;;;;;;;;10218073;28;20030;-63
2021/01/16 01:03:44;;;;;;;2.25;1.65;;;;;;;;;;10221441;28;20035;-64
2021/01/16 01:08:42;;;;;;;6.40;2.00;;;;;;;;;;10192244;28;20053;-64
2021/01/16 01:13:39;;;;;;;3.43;1.77;;;;;;;;;;10206090;28;20394;-63
2021/01/16 01:18:37;;;;;;;3.47;1.53;;;;;;;;;;10193912;28;20468;-62
2021/01/16 01:23:34;;;;;;;4.73;2.77;;;;;;;;;;10184836;28;20137;-63
2021/01/16 01:28:31;;;;;;;3.33;2.37;;;;;;;;;;10205710;28;20031;-64
2021/01/16 01:33:29;;;;;;;4.43;2.00;;;;;;;;;;10190450;28;20027;-64
2021/01/16 01:38:26;;;;;;;2.70;1.63;;;;;;;;;;10210623;28;20038;-63
2021/01/16 01:43:23;;;;;;;3.00;2.10;;;;;;;;;;10203459;28;20565;-63
2021/01/16 01:48:22;;;;;;;2.27;1.77;;;;;;;;;;10201865;28;20081;-64
2021/01/16 01:53:20;;;;;;;2.20;1.48;;;;;;;;;;10200299;28;20049;-63
2021/01/16 01:58:18;;;;;;;2.50;1.70;;;;;;;;;;10194732;28;20383;-63
2021/01/16 02:03:15;;;;;;;5.60;2.30;;;;;;;;;;10199704;28;20022;-63
2021/01/16 02:08:13;;;;;;;1.80;1.60;;;;;;;;;;10178131;28;20735;-63
2021/01/16 02:13:10;;;;;;;5.43;2.00;;;;;;;;;;10197398;28;20041;-63
2021/01/16 02:18:25;;;;;;;2.47;1.50;;;;;;;;;;10202833;28;20099;-63
2021/01/16 02:23:29;;;;;;;3.33;1.95;;;;;;;;;;10187457;28;20121;-63
2021/01/16 02:28:30;;;;;;;3.97;2.58;;;;;;;;;;10195371;28;20037;-63
2021/01/16 02:33:29;;;;;;;19.45;2.67;;;;;;;;;;10185784;28;20043;-65
2021/01/16 02:38:45;;;;;;;4.15;1.88;;;;;;;;;;10194865;28;20042;-64
2021/01/16 02:43:43;;;;;;;3.83;2.30;;;;;;;;;;10187475;28;20050;-64
2021/01/16 02:48:48;;;;;;;2.40;1.60;;;;;;;;;;10204446;28;20132;-64
2021/01/16 02:53:48;;;;;;;5.40;3.08;;;;;;;;;;10196892;28;20034;-65
2021/01/16 02:58:46;;;;;;;3.60;2.40;;;;;;;;;;10203680;28;20062;-65
2021/01/16 03:03:43;;;;;;;5.07;2.70;;;;;;;;;;10208414;28;20057;-63
2021/01/16 03:08:40;;;;;;;5.73;1.93;;;;;;;;;;10214299;28;20038;-63
2021/01/16 03:13:38;;;;;;;4.33;1.97;;;;;;;;;;10200675;28;20042;-64
2021/01/16 03:18:39;;;;;;;2.38;2.00;;;;;;;;;;10204502;28;20030;-63
2021/01/16 03:23:37;;;;;;;9.45;3.50;;;;;;;;;;10206122;28;20039;-62
2021/01/16 03:28:34;;;;;;;6.03;2.97;;;;;;;;;;10195513;28;20041;-62
2021/01/16 03:33:31;;;;;;;4.90;2.73;;;;;;;;;;10208493;28;20043;-64
2021/01/16 03:38:29;;;;;;;2.43;2.03;;;;;;;;;;10204429;28;20183;-63
2021/01/16 03:43:26;;;;;;;6.53;2.20;;;;;;;;;;10202563;28;20238;-65
2021/01/16 03:48:24;;;;;;;6.07;2.73;;;;;;;;;;10199377;28;20476;-64
2021/01/16 03:53:21;;;;;;;4.30;2.40;;;;;;;;;;10206250;28;20608;-63
2021/01/16 03:58:18;;;;;;;3.83;1.70;;;;;;;;;;10215230;28;20414;-64
2021/01/16 04:03:16;;;;;;;7.60;3.63;;;;;;;;;;10222758;28;20041;-64
2021/01/16 04:08:13;;;;;;;5.97;2.90;;;;;;;;;;10208676;28;20062;-64
2021/01/16 04:13:11;;;;;;;5.47;2.60;;;;;;;;;;10214825;28;20035;-64
2021/01/16 04:18:10;;;;;;;5.23;2.80;;;;;;;;;;10211573;28;21018;-64
2021/01/16 04:23:07;;;;;;;6.00;3.38;;;;;;;;;;10208434;28;20113;-63
2021/01/16 04:28:05;;;;;;;5.37;3.30;;;;;;;;;;10214578;28;20121;-65
2021/01/16 04:33:03;;;;;;;7.03;3.47;;;;;;;;;;10227524;28;20042;-65
2021/01/16 04:38:00;;;;;;;6.03;3.75;;;;;;;;;;10209494;28;20304;-65
2021/01/16 04:42:59;;;;;;;7.30;3.50;;;;;;;;;;10200425;28;20034;-65
2021/01/16 04:47:57;;;;;;;4.35;2.50;;;;;;;;;;10216528;28;20041;-64
2021/01/16 04:53:03;;;;;;;9.25;3.50;;;;;;;;;;10206361;28;20045;-64
2021/01/16 04:58:04;;;;;;;7.10;3.28;;;;;;;;;;10199513;28;20129;-64
2021/01/16 05:03:09;;;;;;;5.70;3.15;;;;;;;;;;10210754;28;20031;-65
2021/01/16 05:08:07;;;;;;;9.93;3.30;;;;;;;;;;10195864;28;20022;-64
2021/01/16 05:13:10;;;;;;;3.97;2.63;;;;;;;;;;10195258;28;20040;-64
2021/01/16 05:18:11;;;;;;;9.30;3.65;;;;;;;;;;10206699;28;20112;-65
2021/01/16 05:23:12;;;;;;;5.45;3.30;;;;;;;;;;10200117;28;20401;-64
2021/01/16 05:28:10;;;;;;;6.75;4.03;;;;;;;;;;10196837;28;20125;-65
2021/01/16 05:33:08;;;;;;;5.18;3.35;;;;;;;;;;10201124;28;20064;-65
2021/01/16 05:38:06;;;;;;;7.57;3.53;;;;;;;;;;10216184;28;20087;-65
2021/01/16 05:43:04;;;;;;;8.60;3.40;;;;;;;;;;10201047;28;20038;-65
2021/01/16 05:48:03;;;;;;;5.45;3.33;;;;;;;;;;10194482;28;20030;-63
2021/01/16 05:53:01;;;;;;;4.93;2.63;;;;;;;;;;10211417;28;20386;-63
2021/01/16 05:58:06;;;;;;;3.25;2.45;;;;;;;;;;10210660;28;20078;-64
2021/01/16 06:03:07;;;;;;;7.32;3.67;;;;;;;;;;10201753;28;20499;-64
2021/01/16 06:08:08;;;;;;;10.73;4.13;;;;;;;;;;10168212;28;20310;-64
2021/01/16 06:13:22;;;;;;;12.63;4.90;;;;;;;;;;10164270;28;20042;-64
2021/01/16 06:18:23;;;;;;;9.40;3.67;;;;;;;;;;10200415;28;20554;-64
2021/01/16 06:23:21;;;;;;;8.43;4.03;;;;;;;;;;10195903;28;20081;-64
2021/01/16 06:28:20;;;;;;;5.45;3.20;;;;;;;;;;10210503;28;20572;-64
2021/01/16 06:33:24;;;;;;;5.72;2.83;;;;;;;;;;10210368;28;20065;-64
2021/01/16 06:38:29;;;;;;;6.80;3.05;;;;;;;;;;10195927;28;20042;-65
2021/01/16 06:43:37;;;;;;;3.97;3.00;;;;;;;;;;10184808;28;20444;-64
2021/01/16 06:48:38;;;;;;;7.13;3.35;;;;;;;;;;10181209;28;20304;-64
2021/01/16 06:53:35;;;;;;;6.93;3.33;;;;;;;;;;10195469;28;20049;-65
2021/01/16 06:58:37;;;;;;;7.40;3.60;;;;;;;;;;10191376;28;20037;-65
2021/01/16 07:03:38;;;;;;;5.30;3.88;;;;;;;;;;10185115;28;20046;-66
2021/01/16 07:08:38;;;;;;;6.80;3.30;;;;;;;;;;10197904;28;20505;-65
2021/01/16 07:13:37;;;;;;;7.10;3.50;;;;;;;;;;10195485;28;20045;-66
2021/01/16 07:18:35;;;;;;;5.57;3.00;;;;;;;;;;10194396;28;20065;-65
2021/01/16 07:23:33;;;;;;;4.47;3.05;;;;;;;;;;10189509;28;20444;-64
2021/01/16 07:28:30;;;;;;;;;;;;;;;;;;10178226;28;20061;-66
2021/01/16 07:33:29;;;;;;;7.63;3.33;;;;;;;;;;10193899;28;20008;-65
2021/01/16 07:38:27;;;;;;;7.28;4.13;;;;;;;;;;10182277;28;20283;-64
2021/01/16 07:43:45;;;;;;;11.75;3.83;;;;;;;;;;10184908;28;20030;-64
2021/01/16 07:48:55;;;;;;;7.07;3.67;;;;;;;;;;10203505;28;20522;-64
2021/01/16 07:53:55;;;;;;;8.20;4.50;;;;;;;;;;10184703;28;20057;-65
2021/01/16 07:59:05;;;;;;;7.72;4.22;;;;;;;;;;10199161;28;20035;-65
2021/01/16 08:04:20;;;;;;;6.60;4.10;;;;;;;;;;10190880;28;20034;-64
2021/01/16 08:09:22;;;;;;;9.68;5.00;;;;;;;;;;10197734;28;20393;-65
2021/01/16 08:14:22;;;;;;;11.25;4.80;;;;;;;;;;10182136;28;20053;-65
2021/01/16 08:19:31;;;;;;;9.82;3.92;;;;;;;;;;10201621;28;20041;-65
2021/01/16 08:24:30;;;;;;;6.38;3.67;;;;;;;;;;10191123;28;20375;-65
2021/01/16 08:29:29;;;;;;;9.30;4.70;;;;;;;;;;10192074;28;20126;-65
2021/01/16 08:34:47;;;;;;;9.13;4.60;;;;;;;;;;10195743;28;20042;-66
2021/01/16 08:39:44;;;;;;;10.40;4.57;;;;;;;;;;10191664;28;20484;-65
2021/01/16 08:44:48;;;;;;;11.37;4.80;;;;;;;;;;10204265;28;20125;-66
2021/01/16 08:49:45;;;;;;;9.05;4.55;;;;;;;;;;10191893;28;20066;-65
2021/01/16 08:55:03;;;;;;;10.40;5.37;;;;;;;;;;10176704;28;20117;-65
2021/01/16 09:00:16;;;;;;;12.30;5.75;;;;;;;;;;10207868;28;20343;-66
2021/01/16 09:05:21;;;;;;;10.55;5.00;;;;;;;;;;10211031;28;20065;-66
2021/01/16 09:10:22;;;;;;;11.77;4.75;;;;;;;;;;10201656;28;20030;-66
2021/01/16 09:15:23;;;;;;;19.95;5.93;;;;;;;;;;10204236;28;20229;-65
2021/01/16 09:20:23;;;;;;;17.95;5.85;;;;;;;;;;10201017;28;20038;-66
2021/01/16 09:25:25;;;;;;;13.98;6.32;;;;;;;;;;10201506;28;20072;-65
2021/01/16 09:30:22;;;;;;;14.23;6.30;;;;;;;;;;10188950;28;20033;-66
2021/01/16 09:35:38;;;;;;;11.47;5.50;;;;;;;;;;10189079;28;20516;-66
2021/01/16 09:40:36;;;;;;;11.82;5.40;;;;;;;;;;10204160;28;20397;-66
2021/01/16 09:45:48;;;;;;;12.52;5.93;;;;;;;;;;10173500;28;20031;-64
2021/01/16 09:50:45;;;;;;;10.50;5.25;;;;;;;;;;10215486;28;20029;-65
2021/01/16 09:55:43;;;;;;;6.93;4.47;;;;;;;;;;10192271;28;20031;-66
2021/01/16 10:00:40;;;;;;;12.57;5.50;;;;;;;;;;10173300;28;20049;-65
2021/01/16 10:05:39;;;;;;;10.63;4.23;;;;;;;;;;10190627;28;20042;-65
2021/01/16 10:10:36;;;;;;;;;;;;;;;;;;10191052;28;20053;-64
2021/01/16 10:15:41;;;;;;;13.23;5.50;;;;;;;;;;10200719;28;19918;-65
2021/01/16 10:20:38;;;;;;;12.98;5.55;;;;;;;;;;10194341;28;20047;-65
2021/01/16 10:25:38;;;;;;;10.27;4.87;;;;;;;;;;10200349;28;20035;-65
2021/01/16 10:30:40;;;;;;;9.95;5.80;;;;;;;;;;10184360;28;20129;-65
2021/01/16 10:35:37;;;;;;;9.60;5.30;;;;;;;;;;10203986;28;20062;-65
2021/01/16 10:40:35;;;;;;;12.43;6.07;;;;;;;;;;10192777;28;20053;-64
2021/01/16 10:45:32;;;;;;;9.70;4.50;;;;;;;;;;10175648;28;20258;-65
2021/01/16 10:50:30;;;;;;;11.87;5.40;;;;;;;;;;10204884;28;20453;-65
2021/01/16 10:55:47;;;;;;;9.50;5.40;;;;;;;;;;10185818;28;20038;-66
2021/01/16 11:00:50;;;;;;;12.48;6.00;;;;;;;;;;10186228;28;20049;-65
2021/01/16 11:05:48;;;;;;;12.68;6.78;;;;;;;;;;10183447;28;20053;-64
2021/01/16 11:10:47;;;;;;;9.95;4.97;;;;;;;;;;10191256;28;20445;-66
2021/01/16 11:15:45;;;;;;;10.02;4.95;;;;;;;;;;10184895;28;20505;-65
2021/01/16 11:20:49;;;;;;;15.18;5.57;;;;;;;;;;10178675;28;20038;-65
2021/01/16 11:25:47;;;;;;;14.13;5.97;;;;;;;;;;10159501;28;20042;-65
2021/01/16 11:30:48;;;;;;;13.88;5.00;;;;;;;;;;10193725;28;20517;-65
2021/01/16 11:35:45;;;;;;;12.00;6.25;;;;;;;;;;10201375;28;20520;-66
2021/01/16 11:40:45;;;;;;;12.67;3.07;;;;;;;;;;10205029;28;20112;-66
2021/01/16 11:45:43;;;;;;;13.55;6.40;;;;;;;;;;10192184;28;20034;-65
2021/01/16 11:50:40;;;;;;;14.80;7.80;;;;;;;;;;10202569;28;20027;-64
2021/01/16 11:55:39;;;;;;;11.00;5.77;;;;;;;;;;10183183;28;20046;-64
2021/01/16 12:00:37;;;;;;;15.30;6.78;;;;;;;;;;10192118;28;20031;-65
2021/01/16 12:05:34;;;;;;;15.75;7.15;;;;;;;;;;10190486;28;20849;-65
2021/01/16 12:10:31;;;;;;;16.00;7.97;;;;;;;;;;10205001;28;20053;-65
2021/01/16 12:15:32;;;;;;;19.20;7.50;;;;;;;;;;10200418;28;20053;-65
2021/01/16 12:20:31;;;;;;;15.55;7.20;;;;;;;;;;10196711;28;20038;-65
2021/01/16 12:25:29;;;;;;;25.90;10.27;;;;;;;;;;10205793;28;20484;-65
2021/01/16 12:30:34;;;;;;;18.50;8.03;;;;;;;;;;10182084;28;20035;-65
2021/01/16 12:35:31;;;;;;;34.95;10.75;;;;;;;;;;10187720;28;20053;-65
2021/01/16 12:40:29;;;;;;;18.23;7.53;;;;;;;;;;10189942;28;20042;-65
2021/01/16 12:45:28;;;;;;;20.10;9.00;;;;;;;;;;10212399;28;20501;-65
2021/01/16 12:50:25;;;;;;;71.22;15.85;;;;;;;;;;10197778;28;20030;-65
2021/01/16 12:55:24;;;;;;;49.43;12.50;;;;;;;;;;10205059;28;20039;-65
2021/01/16 13:00:21;;;;;;;69.43;13.52;;;;;;;;;;10189977;28;20038;-65
2021/01/16 13:05:19;;;;;;;38.07;12.10;;;;;;;;;;10183344;28;20037;-65
2021/01/16 13:10:16;;;;;;;30.13;10.57;;;;;;;;;;10200559;28;20081;-64
2021/01/16 13:15:14;;;;;;;37.17;14.50;;;;;;;;;;10194111;28;20042;-66
2021/01/16 13:20:14;;;;;;;30.23;12.40;;;;;;;;;;10201606;28;20038;-65
2021/01/16 13:25:16;;;;;;;40.50;14.35;;;;;;;;;;10189440;28;20093;-65
2021/01/16 13:30:14;;;;;;;36.65;12.45;;;;;;;;;;10204912;28;20037;-66
2021/01/16 13:35:12;;;;;;;31.77;11.35;;;;;;;;;;10183651;28;20405;-65
2021/01/16 13:40:13;;;;;;;24.63;10.10;;;;;;;;;;10205217;28;20048;-65
2021/01/16 13:45:14;;;;;;;26.52;9.85;;;;;;;;;;10189455;28;20089;-66
2021/01/16 13:50:19;;;;;;;28.85;8.85;;;;;;;;;;10192762;28;20122;-65
2021/01/16 13:55:18;;;;;;;23.90;7.85;;;;;;;;;;10191291;28;20504;-65
2021/01/16 14:00:15;;;;;;;12.98;6.03;;;;;;;;;;10184865;28;20041;-65
2021/01/16 14:05:13;;;;;;;30.77;10.17;;;;;;;;;;10174153;28;20038;-65
2021/01/16 14:10:11;;;;;;;23.50;9.60;;;;;;;;;;10212336;28;20266;-65
2021/01/16 14:15:08;;;;;;;16.73;7.85;;;;;;;;;;10191291;28;20472;-64
2021/01/16 14:20:07;;;;;;;13.93;4.57;;;;;;;;;;10183271;28;20031;-65
2021/01/16 14:25:06;;;;;;;22.83;8.48;;;;;;;;;;10195046;28;20042;-65
2021/01/16 14:30:04;;;;;;;15.52;5.70;;;;;;;;;;10188014;28;20072;-66
2021/01/16 14:35:02;;;;;;;21.98;9.02;;;;;;;;;;10188690;28;20034;-65
2021/01/16 14:40:00;;;;;;;26.50;11.32;;;;;;;;;;10175765;28;20045;-66
2021/01/16 14:44:58;;;;;;;24.57;9.77;;;;;;;;;;10217575;28;20496;-67
2021/01/16 14:49:55;;;;;;;;;;;;;;;;;;10198922;28;20026;-66
2021/01/16 14:54:58;;;;;;;16.40;6.45;;;;;;;;;;10193960;28;20000;-65
2021/01/16 14:59:55;;;;;;;13.65;7.70;;;;;;;;;;10196890;28;20034;-65
2021/01/16 15:05:03;;;;;;;20.07;6.97;;;;;;;;;;10189731;28;20031;-64
2021/01/16 15:10:01;;;;;;;21.83;7.00;;;;;;;;;;10187415;28;20038;-63
2021/01/16 15:15:02;;;;;;;20.73;8.87;;;;;;;;;;10182013;28;20400;-64
2021/01/16 15:19:59;;;;;;;17.75;8.50;;;;;;;;;;10227125;28;20030;-65
2021/01/16 15:24:58;;;;;;;20.13;7.50;;;;;;;;;;10211833;28;20038;-65
2021/01/16 15:29:56;;;;;;;19.65;8.35;;;;;;;;;;10194451;28;20022;-65
2021/01/16 15:35:02;;;;;;;23.67;8.63;;;;;;;;;;10210450;28;20084;-64
2021/01/16 15:40:00;;;;;;;14.88;7.22;;;;;;;;;;10192980;28;20031;-64
2021/01/16 15:45:07;;;;;;;16.50;6.37;;;;;;;;;;10199175;28;20417;-65
2021/01/16 15:50:05;;;;;;;12.13;6.22;;;;;;;;;;10206367;28;20038;-65
2021/01/16 15:55:10;;;;;;;16.75;6.55;;;;;;;;;;10188337;28;20057;-65
2021/01/16 16:00:20;;;;;;;10.95;5.03;;;;;;;;;;10206557;28;20030;-64
2021/01/16 16:05:18;;;;;;;24.10;7.57;;;;;;;;;;10206363;28;20061;-65
2021/01/16 16:10:15;;;;;;;14.63;7.10;;;;;;;;;;10183703;28;20052;-65
2021/01/16 16:15:13;;;;;;;11.33;5.70;;;;;;;;;;10198967;28;20409;-65
2021/01/16 16:20:11;;;;;;;11.80;5.00;;;;;;;;;;10211095;28;20408;-65
2021/01/16 16:25:08;;;;;;;16.42;6.45;;;;;;;;;;10192299;28;20030;-65
2021/01/16 16:30:07;;;;;;;13.57;6.57;;;;;;;;;;10208326;28;20033;-64
2021/01/16 16:35:04;;;;;;;;;;;;;;;;;;10212074;28;20122;-65
2021/01/16 16:40:02;;;;;;;23.52;9.20;;;;;;;;;;10204615;28;20339;-64
2021/01/16 16:44:59;;;;;;;20.83;9.43;;;;;;;;;;10210981;28;20147;-64
2021/01/16 16:49:57;;;;;;;22.63;11.33;;;;;;;;;;10208513;28;20115;-64
2021/01/16 16:54:54;;;;;;;27.27;10.60;;;;;;;;;;10194809;28;20030;-64
2021/01/16 16:59:52;;;;;;;29.37;11.10;;;;;;;;;;10188046;28;20030;-65
2021/01/16 17:04:49;;;;;;;39.30;13.77;;;;;;;;;;10211557;28;20088;-65
2021/01/16 17:09:46;;;;;;;18.10;8.93;;;;;;;;;;10215896;28;20524;-65
2021/01/16 17:14:44;;;;;;;25.20;9.07;;;;;;;;;;10191485;28;20038;-65
2021/01/16 17:19:42;;;;;;;29.63;12.40;;;;;;;;;;10221253;28;20038;-65
2021/01/16 17:24:43;;;;;;;20.10;9.67;;;;;;;;;;10201293;28;20043;-64
2021/01/16 17:29:40;;;;;;;22.45;10.20;;;;;;;;;;10187127;28;21458;-65
2021/01/16 17:34:38;;;;;;;27.87;11.30;;;;;;;;;;10187762;28;20039;-66
2021/01/16 17:39:35;;;;;;;20.43;10.30;;;;;;;;;;10198242;28;20027;-65
2021/01/16 17:44:33;;;;;;;25.43;11.10;;;;;;;;;;10188992;28;20034;-65
2021/01/16 17:49:30;;;;;;;27.23;11.23;;;;;;;;;;10201393;28;20281;-64
2021/01/16 17:54:28;;;;;;;31.00;13.67;;;;;;;;;;10194543;28;20038;-64
2021/01/16 17:59:25;;;;;;;21.70;10.20;;;;;;;;;;10185450;28;20038;-64
2021/01/16 18:04:23;;;;;;;18.83;9.87;;;;;;;;;;10184131;28;20061;-64
2021/01/16 18:09:20;;;;;;;30.17;12.47;;;;;;;;;;10199992;28;20453;-65
2021/01/16 18:14:18;;;;;;;26.00;11.40;;;;;;;;;;10159518;28;20320;-65
2021/01/16 18:19:15;;;;;;;20.33;10.13;;;;;;;;;;10203900;28;20030;-64
2021/01/16 18:24:13;;;;;;;26.50;10.70;;;;;;;;;;10190360;28;20031;-64
2021/01/16 18:29:11;;;;;;;20.13;8.83;;;;;;;;;;10171500;28;20041;-64
2021/01/16 18:34:09;;;;;;;19.98;9.20;;;;;;;;;;10170719;28;20034;-65
2021/01/16 18:39:07;;;;;;;17.88;8.13;;;;;;;;;;10196715;28;20035;-64
2021/01/16 18:44:05;;;;;;;20.92;10.75;;;;;;;;;;10150609;28;20051;-64
2021/01/16 18:49:03;;;;;;;35.53;12.63;;;;;;;;;;10220485;22;20100;-66
2021/01/16 18:54:01;;;;;;;;;;;;;;;;;;10217967;28;20090;-66
2021/01/16 18:59:00;;;;;;;24.60;10.50;;;;;;;;;;10196409;28;19920;-64
2021/01/16 19:03:57;;;;;;;21.67;10.02;;;;;;;;;;10177396;28;20122;-64
2021/01/16 19:08:55;;;;;;;25.43;12.53;;;;;;;;;;10157551;28;20040;-65
2021/01/16 19:13:52;;;;;;;21.67;10.77;;;;;;;;;;10154513;28;20054;-65
2021/01/16 19:18:49;;;;;;;18.80;10.47;;;;;;;;;;10147211;28;20500;-69
2021/01/16 19:23:47;;;;;;;22.60;10.93;;;;;;;;;;10157916;28;20047;-70
2021/01/16 19:28:48;;;;;;;22.48;10.23;;;;;;;;;;10156616;28;20031;-69
2021/01/16 19:33:46;;;;;;;25.08;12.52;;;;;;;;;;10157149;28;20049;-68
2021/01/16 19:38:43;;;;;;;24.40;11.90;;;;;;;;;;10156032;28;20035;-68
2021/01/16 19:43:41;;;;;;;25.67;11.63;;;;;;;;;;10166909;28;20042;-69
2021/01/16 19:48:38;;;;;;;23.07;11.77;;;;;;;;;;10161581;28;20702;-68
2021/01/16 19:53:35;;;;;;;26.53;11.60;;;;;;;;;;10163855;28;20035;-68
2021/01/16 19:58:34;;;;;;;22.23;10.57;;;;;;;;;;10175889;28;20101;-69
2021/01/16 20:03:31;;;;;;;21.27;9.93;;;;;;;;;;10164292;28;20445;-69
2021/01/16 20:08:28;;;;;;;28.70;14.87;;;;;;;;;;10165934;28;20039;-68
2021/01/16 20:13:26;;;;;;;32.80;15.13;;;;;;;;;;10153773;28;20497;-69
2021/01/16 20:18:23;;;;;;;27.93;15.43;;;;;;;;;;10162572;28;20030;-68
2021/01/16 20:23:21;;;;;;;29.63;15.37;;;;;;;;;;10159436;28;20433;-69
2021/01/16 20:28:18;;;;;;;35.37;15.57;;;;;;;;;;10160962;28;20125;-69
2021/01/16 20:33:15;;;;;;;27.87;14.87;;;;;;;;;;10163019;28;20049;-68
2021/01/16 20:38:13;;;;;;;29.43;15.27;;;;;;;;;;10165269;28;20419;-69
2021/01/16 20:43:10;;;;;;;30.40;15.93;;;;;;;;;;10168144;28;20043;-68
2021/01/16 20:48:08;;;;;;;28.77;15.10;;;;;;;;;;10168007;28;20086;-69
2021/01/16 20:53:06;;;;;;;29.23;16.70;;;;;;;;;;10167197;28;20046;-68
2021/01/16 20:58:04;;;;;;;30.52;15.27;;;;;;;;;;10162905;28;20077;-70
2021/01/16 21:03:02;;;;;;;31.55;14.85;;;;;;;;;;10147256;28;20126;-67
2021/01/16 21:07:59;;;;;;;22.52;10.23;;;;;;;;;;10152931;28;20039;-68
2021/01/16 21:12:57;;;;;;;22.37;11.23;;;;;;;;;;10168991;28;20509;-69
2021/01/16 21:17:54;;;;;;;21.83;10.43;;;;;;;;;;10153183;28;20042;-70
2021/01/16 21:22:55;;;;;;;23.43;10.03;;;;;;;;;;10143510;28;20038;-68
2021/01/16 21:27:52;;;;;;;21.13;10.23;;;;;;;;;;10166095;28;20054;-68
2021/01/16 21:32:51;;;;;;;24.17;11.37;;;;;;;;;;10159485;28;20046;-70
2021/01/16 21:37:48;;;;;;;;;;;;;;;;;;10161514;28;20027;-71
2021/01/16 21:42:45;;;;;;;22.20;10.25;;;;;;;;;;10142816;28;20291;-69
2021/01/16 21:47:43;;;;;;;24.13;9.87;;;;;;;;;;10164222;28;20073;-70
2021/01/16 21:52:44;;;;;;;23.00;10.60;;;;;;;;;;10154467;28;20093;-69
2021/01/16 21:57:42;;;;;;;26.10;11.07;;;;;;;;;;10152829;28;20258;-70
2021/01/16 22:02:40;;;;;;;18.70;9.18;;;;;;;;;;10166652;28;20043;-70
2021/01/16 22:07:44;;;;;;;17.17;8.75;;;;;;;;;;10157118;28;20189;-69
2021/01/16 22:12:41;;;;;;;18.75;9.55;;;;;;;;;;10164756;28;20043;-70
2021/01/16 22:17:49;;;;;;;16.20;6.63;;;;;;;;;;10155424;28;20580;-68
2021/01/16 22:22:48;;;;;;;22.15;10.07;;;;;;;;;;10155795;28;20437;-69
2021/01/16 22:27:46;;;;;;;15.50;8.23;;;;;;;;;;10160119;28;20031;-68
2021/01/16 22:32:46;;;;;;;26.70;11.68;;;;;;;;;;10144268;28;20039;-71
2021/01/16 22:37:43;;;;;;;20.20;9.13;;;;;;;;;;10145348;28;20492;-70
2021/01/16 22:42:47;;;;;;;19.13;7.77;;;;;;;;;;10147564;28;20125;-69
2021/01/16 22:47:50;;;;;;;23.38;10.88;;;;;;;;;;10141438;28;20146;-70
2021/01/16 22:52:47;;;;;;;27.08;10.10;;;;;;;;;;10154683;28;20406;-70
2021/01/16 22:57:45;;;;;;;22.33;11.10;;;;;;;;;;10139177;28;20406;-70
2021/01/16 23:02:42;;;;;;;17.23;9.43;;;;;;;;;;10140288;28;20502;-69
2021/01/16 23:07:40;;;;;;;20.27;10.30;;;;;;;;;;10150742;28;20043;-69
2021/01/16 23:12:37;;;;;;;24.77;10.77;;;;;;;;;;10161951;28;20321;-69
2021/01/16 23:17:37;;;;;;;22.60;10.37;;;;;;;;;;10145556;28;20133;-67
2021/01/16 23:22:34;;;;;;;17.33;9.25;;;;;;;;;;10152955;28;20453;-68
2021/01/16 23:27:32;;;;;;;18.93;10.23;;;;;;;;;;10156721;28;20050;-68
2021/01/16 23:32:31;;;;;;;18.40;8.63;;;;;;;;;;10153293;28;20039;-69
2021/01/16 23:37:29;;;;;;;24.88;12.07;;;;;;;;;;10146496;28;20359;-68
2021/01/16 23:42:30;;;;;;;26.97;12.90;;;;;;;;;;10155171;28;20062;-69
2021/01/16 23:47:32;;;;;;;20.27;9.85;;;;;;;;;;10156733;28;20062;-69
2021/01/16 23:52:29;;;;;;;20.85;10.65;;;;;;;;;;10160963;28;20455;-69
2021/01/16 23:57:27;;;;;;;11.10;7.07;;;;;;;;;;10174361;28;20133;-69
